N8QQQ Weather Reports


time (UTC)temp
F
wind
direction
speed
knots
gust
knots
rain 1hr
in
rain 24hr
in
rain mn
in
humidity
%
barometer
mb
20260906191315 74 2 0.0 0.0 0.00 0.00 0.00 67 1021.2
20260906190809 75 2 0.9 0.9 0.00 0.00 0.00 66 1021.2
20260906190309 75 1 0.0 0.0 0.00 0.00 0.00 65 1021.3
20260906185803 75 2 1.7 1.7 0.00 0.00 0.00 64 1021.3
20260906185306 75 9 0.0 0.0 0.00 0.00 0.00 66 1021.5
20260906184756 76 8 0.0 0.0 0.00 0.00 0.00 64 1021.5
20260906184251 77 298 0.0 0.0 0.00 0.00 0.00 62 1021.5
20260906183747 77 288 0.0 0.9 0.00 0.00 0.00 59 1021.4
20260906183244 77 346 0.0 0.0 0.00 0.00 0.00 58 1021.5
20260906182738 77 242 0.0 0.0 0.00 0.00 0.00 58 1021.6
20260906182234 77 150 1.7 1.7 0.00 0.00 0.00 59 1021.6
20260906181729 77 285 0.0 0.0 0.00 0.00 0.00 62 1021.9
20260906181225 77 199 0.9 1.7 0.00 0.00 0.00 61 1021.9
20260906180720 76 156 0.0 0.9 0.00 0.00 0.00 64 1021.9
20260906180215 75 174 0.9 0.9 0.00 0.00 0.00 65 1022.1
20260906175712 76 176 1.7 2.6 0.00 0.00 0.00 63 1021.9
20260906175208 75 147 0.9 1.7 0.00 0.00 0.00 62 1022.0
20260906174706 75 224 0.0 0.9 0.00 0.00 0.00 65 1021.9
20260906174201 74 13 0.0 0.0 0.00 0.00 0.00 67 1022.0
20260906173656 74 13 0.0 0.0 0.00 0.00 0.00 67 1022.1
20260906173152 73 12 0.0 0.0 0.00 0.00 0.00 71 1022.3
20260906172651 74 12 0.0 0.0 0.00 0.00 0.00 69 1022.3
20260906172147 73 320 0.9 0.9 0.00 0.00 0.00 68 1022.3
20260906171646 73 338 0.9 0.9 0.00 0.00 0.00 68 1022.0
20260906171142 73 332 0.0 0.0 0.00 0.00 0.00 70 1022.3
20260906170638 72 331 0.0 0.9 0.00 0.00 0.00 70 1022.3
20260906170137 73 311 0.0 0.9 0.00 0.00 0.00 70 1022.1
20260906165634 73 332 0.0 0.0 0.00 0.00 0.00 68 1022.3
20260906165129 73 269 0.9 0.9 0.00 0.00 0.00 68 1022.4
20260906164627 74 310 0.0 0.0 0.00 0.00 0.00 65 1022.3
20260906164123 74 293 0.0 0.0 0.00 0.00 0.00 66 1022.5
20260906163619 75 342 0.9 1.7 0.00 0.00 0.00 65 1022.4
20260906163115 75 283 0.9 0.9 0.00 0.00 0.00 64 1022.4
20260906162612 74 4 0.0 0.0 0.00 0.00 0.00 66 1022.4
20260906162107 75 313 0.9 1.7 0.00 0.00 0.00 66 1022.3
20260906161601 74 6 0.9 0.9 0.00 0.00 0.00 65 1022.3
20260906161100 74 307 0.0 0.0 0.00 0.00 0.00 67 1022.5
20260906160559 73 27 0.0 0.0 0.00 0.00 0.00 68 1022.6
20260906160058 73 22 0.9 0.9 0.00 0.00 0.00 69 1022.4
20260906155555 73 278 0.0 0.9 0.00 0.00 0.00 66 1022.4
20260906155052 72 303 0.0 0.9 0.00 0.00 0.00 68 1022.6
20260906154547 71 329 0.0 0.0 0.00 0.00 0.00 70 1022.5
20260906154046 70 344 1.7 1.7 0.00 0.00 0.00 70 1022.5
20260906153544 70 304 0.0 0.9 0.00 0.00 0.00 71 1022.6
20260906153040 71 303 0.0 0.9 0.00 0.00 0.00 70 1022.5
20260906152539 70 308 0.0 0.0 0.00 0.00 0.00 71 1023.0
20260906152038 69 338 0.0 0.0 0.00 0.00 0.00 72 1022.7
20260906151534 69 334 1.7 1.7 0.00 0.00 0.00 71 1022.7
20260906151030 69 274 0.0 0.0 0.00 0.00 0.00 72 1022.8
20260906150525 69 273 0.0 0.9 0.00 0.00 0.00 73 1023.0
20260906150020 68 342 0.0 0.0 0.00 0.00 0.00 73 1023.0
20260906145519 67 343 0.0 0.0 0.00 0.00 0.00 74 1023.1
20260906145014 67 342 0.9 0.9 0.00 0.00 0.00 73 1022.9
20260906144508 66 342 0.0 0.0 0.00 0.00 0.00 75 1022.8
20260906144003 65 342 0.0 0.0 0.00 0.00 0.00 80 1022.7
20260906143459 64 342 0.0 0.0 0.00 0.00 0.00 81 1022.9
20260906142955 64 342 0.0 0.9 0.00 0.00 0.00 83 1022.9
20260906142448 63 341 0.9 0.9 0.00 0.00 0.00 83 1023.0
20260906141944 62 50 0.0 0.0 0.00 0.00 0.00 88 1023.0
20260906141443 62 50 0.0 0.0 0.00 0.00 0.00 87 1023.0
20260906140939 60 50 0.0 0.0 0.00 0.00 0.00 92 1023.1
20260906140433 59 50 0.0 0.0 0.00 0.00 0.00 94 1023.1
20260906135931 59 50 0.0 0.0 0.00 0.00 0.00 99 1022.8
20260906135430 58 50 0.0 0.0 0.00 0.00 0.00 99 1022.9
20260906134926 57 50 0.0 0.0 0.00 0.00 0.00 99 1023.2
20260906134421 57 50 0.0 0.0 0.00 0.00 0.00 99 1023.1
20260906133916 57 50 0.0 0.0 0.00 0.00 0.00 99 1022.8
20260906133412 56 50 0.0 0.0 0.00 0.00 0.00 99 1022.9
20260906132907 55 50 0.0 0.0 0.00 0.00 0.00 99 1022.9
20260906132402 54 51 0.0 0.0 0.00 0.00 0.00 99 1022.8
20260906131858 53 51 0.0 0.0 0.00 0.00 0.00 99 1022.8
20260906131353 52 51 0.0 0.0 0.00 0.00 0.00 99 1022.7
20260906130849 51 51 0.0 0.0 0.00 0.00 0.00 99 1022.8
20260906130348 50 51 0.0 0.0 0.00 0.00 0.00 99 1022.6
20260906125848 50 51 0.0 0.0 0.00 0.00 0.00 99 1022.7
20260906125344 49 51 0.0 0.0 0.00 0.00 0.00 99 1022.6
20260906124839 48 51 0.0 0.0 0.00 0.00 0.00 99 1022.8
20260906124336 48 51 0.0 0.0 0.00 0.00 0.00 99 1022.7
20260906123834 48 51 0.0 0.0 0.00 0.00 0.00 99 1022.7
20260906123329 47 51 0.0 0.0 0.00 0.00 0.00 99 1022.7
20260906122829 47 51 0.0 0.0 0.00 0.00 0.00 99 1022.7
20260906122323 46 51 0.0 0.0 0.00 0.00 0.00 99 1022.6
20260906121816 46 51 0.0 0.0 0.00 0.00 0.00 99 1022.6
20260906121311 46 51 0.0 0.0 0.00 0.00 0.00 99 1022.7
20260906120807 46 51 0.0 0.0 0.00 0.00 0.00 99 1022.6
20260906120303 45 51 0.0 0.0 0.00 0.00 0.00 99 1022.6
20260906115759 45 51 0.0 0.0 0.00 0.00 0.00 99 1022.4
20260906115254 45 51 0.0 0.0 0.00 0.00 0.00 99 1022.6
20260906114753 45 51 0.0 0.0 0.00 0.00 0.00 99 1022.2
20260906114248 45 51 0.0 0.0 0.00 0.00 0.00 99 1022.4
20260906113744 45 51 0.0 0.0 0.00 0.00 0.00 99 1022.3
20260906113242 45 51 0.0 0.0 0.00 0.00 0.00 99 1022.3
20260906112737 45 51 0.0 0.0 0.00 0.00 0.00 99 1022.4
20260906112234 45 51 0.0 0.0 0.00 0.00 0.00 99 1022.3
20260906111733 45 51 0.0 0.0 0.00 0.00 0.00 99 1022.2
20260906111227 45 51 0.0 0.0 0.00 0.00 0.00 99 1022.1
20260906110722 45 51 0.0 0.0 0.00 0.00 0.00 99 1022.1
20260906110212 45 51 0.0 0.0 0.00 0.00 0.00 99 1022.0
20260906105705 45 51 0.0 0.0 0.00 0.00 0.00 99 1021.9
20260906105202 45 51 0.0 0.0 0.00 0.00 0.00 99 1021.9
20260906104701 45 51 0.0 0.0 0.00 0.00 0.00 99 1021.9
20260906104200 45 51 0.0 0.0 0.00 0.00 0.00 99 1021.5
20260906103658 45 51 0.0 0.0 0.00 0.00 0.00 99 1021.9
20260906103153 45 51 0.0 0.0 0.00 0.00 0.00 99 1021.9
20260906102649 45 51 0.0 0.0 0.00 0.00 0.00 99 1021.9
20260906102143 45 51 0.0 0.0 0.00 0.00 0.00 99 1021.7
20260906101642 45 51 0.0 0.0 0.00 0.00 0.00 99 1021.9
20260906101137 45 51 0.0 0.0 0.00 0.00 0.00 99 1021.7
20260906100633 45 51 0.0 0.0 0.00 0.00 0.00 99 1022.0
20260906100127 46 51 0.0 0.0 0.00 0.00 0.00 99 1021.7
20260906095622 46 51 0.0 0.0 0.00 0.00 0.00 99 1021.6
20260906095118 46 51 0.0 0.0 0.00 0.00 0.00 99 1021.6
20260906094617 46 51 0.0 0.0 0.00 0.00 0.00 99 1021.7
20260906094113 46 51 0.0 0.0 0.00 0.00 0.00 99 1021.6
20260906093609 46 51 0.0 0.0 0.00 0.00 0.00 99 1021.7
20260906093103 46 51 0.0 0.0 0.00 0.00 0.00 99 1021.9
20260906092558 46 51 0.0 0.0 0.00 0.00 0.00 99 1021.6
20260906092053 46 51 0.0 0.0 0.00 0.00 0.00 99 1021.9
20260906091549 46 51 0.0 0.0 0.00 0.00 0.00 99 1021.6
20260906091045 46 51 0.0 0.0 0.00 0.00 0.00 99 1021.6
20260906090545 46 51 0.0 0.0 0.00 0.00 0.00 99 1021.6
20260906090040 46 51 0.0 0.0 0.00 0.00 0.00 99 1021.7
20260906085539 46 51 0.0 0.0 0.00 0.00 0.00 99 1021.9
20260906085038 46 51 0.0 0.0 0.00 0.00 0.00 99 1021.7
20260906084533 46 51 0.0 0.0 0.00 0.00 0.00 99 1021.9
20260906084032 46 51 0.0 0.0 0.00 0.00 0.00 99 1021.7
20260906083528 46 51 0.0 0.0 0.00 0.00 0.00 99 1021.7
20260906083027 46 51 0.0 0.0 0.00 0.00 0.00 99 1021.9
20260906082523 47 51 0.0 0.0 0.00 0.00 0.00 99 1022.0
20260906082019 47 51 0.0 0.0 0.00 0.00 0.00 99 1021.7
20260906081514 47 51 0.0 0.0 0.00 0.00 0.00 99 1021.4
20260906081009 47 51 0.0 0.0 0.00 0.00 0.00 99 1021.6
20260906080506 47 51 0.0 0.0 0.00 0.00 0.00 99 1021.6
20260906080002 47 51 0.0 0.0 0.00 0.00 0.00 99 1021.5
20260906075456 47 51 0.0 0.0 0.00 0.00 0.00 99 1021.6
20260906074951 47 51 0.0 0.0 0.00 0.00 0.00 99 1021.5
20260906074445 47 51 0.0 0.0 0.00 0.00 0.00 99 1021.6
20260906073943 47 51 0.0 0.0 0.00 0.00 0.00 99 1021.4
20260906073439 47 51 0.0 0.0 0.00 0.00 0.00 99 1021.6
20260906072935 47 51 0.0 0.0 0.00 0.00 0.00 99 1021.6
20260906072430 47 51 0.0 0.0 0.00 0.00 0.00 99 1021.3
20260906071926 47 51 0.0 0.0 0.00 0.00 0.00 99 1021.3
20260906071422 47 51 0.0 0.0 0.00 0.00 0.00 99 1021.4
20260906070917 47 51 0.0 0.0 0.00 0.00 0.00 99 1021.2
20260906070413 48 51 0.0 0.0 0.00 0.00 0.00 99 1021.2
20260906065903 48 51 0.0 0.0 0.00 0.00 0.00 99 1021.1
20260906065356 48 51 0.0 0.0 0.00 0.00 0.00 99 1021.3
20260906064852 48 51 0.0 0.0 0.00 0.00 0.00 99 1021.3
20260906064348 48 51 0.0 0.0 0.00 0.00 0.00 99 1021.1
20260906063843 48 51 0.0 0.0 0.00 0.00 0.00 99 1021.0
20260906063338 48 51 0.0 0.0 0.00 0.00 0.00 99 1021.1
20260906062833 48 51 0.0 0.0 0.00 0.00 0.00 99 1020.9
20260906062332 48 51 0.0 0.0 0.00 0.00 0.00 99 1021.1
20260906061828 49 51 0.0 0.0 0.00 0.00 0.00 99 1021.0
20260906061324 49 51 0.0 0.0 0.00 0.00 0.00 99 1021.2
20260906060819 48 51 0.0 0.0 0.00 0.00 0.00 99 1021.1
20260906060317 48 51 0.0 0.0 0.00 0.00 0.00 99 1021.0
20260906055812 49 51 0.0 0.0 0.00 0.00 0.00 99 1021.0
20260906055308 49 51 0.0 0.0 0.00 0.00 0.00 99 1021.0
20260906054803 49 51 0.0 0.0 0.00 0.00 0.00 99 1020.8
20260906054258 49 51 0.0 0.0 0.00 0.00 0.00 99 1020.8
20260906053754 49 51 0.0 0.0 0.00 0.00 0.00 99 1020.8
20260906053250 49 51 0.0 0.0 0.00 0.00 0.00 99 1020.7
20260906052745 50 51 0.0 0.0 0.00 0.00 0.00 99 1020.8
20260906052241 50 51 0.0 0.0 0.00 0.00 0.00 99 1020.9
20260906051738 50 51 0.0 0.0 0.00 0.00 0.00 99 1021.0
20260906051237 50 51 0.0 0.0 0.00 0.00 0.00 99 1020.9
20260906050733 50 51 0.0 0.0 0.00 0.00 0.00 99 1020.8
20260906050228 50 51 0.0 0.0 0.00 0.00 0.00 99 1020.8
20260906045726 50 51 0.0 0.0 0.00 0.00 0.00 99 1020.7
20260906045222 50 51 0.0 0.0 0.00 0.00 0.00 99 1020.7
20260906044717 51 51 0.0 0.0 0.00 0.00 0.00 99 1020.6
20260906044212 51 51 0.0 0.0 0.00 0.00 0.00 99 1020.5
20260906043709 51 51 0.0 0.0 0.00 0.00 0.00 99 1020.7
20260906043204 51 51 0.0 0.0 0.00 0.00 0.00 99 1020.6
20260906042703 51 51 0.0 0.0 0.00 0.00 0.00 99 1020.5
20260906042157 51 51 0.0 0.0 0.00 0.00 0.00 99 1020.5
20260906041653 51 51 0.0 0.0 0.00 0.00 0.00 99 1020.6
20260906041148 51 51 0.0 0.0 0.00 0.00 0.00 99 1020.6
20260906040643 52 51 0.0 0.0 0.00 0.00 0.00 99 1020.6
20260906040139 52 51 0.0 0.0 0.00 0.00 0.00 99 1020.6
20260906035634 52 51 0.0 0.0 0.00 0.00 0.00 99 1020.6
20260906035129 52 51 0.0 0.0 0.00 0.00 0.00 99 1020.5
20260906034630 52 51 0.0 0.0 0.00 0.00 0.00 99 1020.4
20260906034124 52 51 0.0 0.0 0.00 0.00 0.00 99 1020.5
20260906033620 53 51 0.0 0.0 0.00 0.00 0.00 99 1020.3
20260906033114 53 51 0.0 0.0 0.00 0.00 0.00 99 1020.4
20260906032612 53 51 0.0 0.0 0.00 0.00 0.00 98 1020.4
20260906032111 53 51 0.0 0.0 0.00 0.00 0.00 98 1020.2
20260906031606 53 51 0.0 0.0 0.00 0.00 0.00 98 1020.3
20260906031102 53 51 0.0 0.0 0.00 0.00 0.00 98 1020.3
20260906030601 54 51 0.0 0.0 0.00 0.00 0.00 98 1020.5
20260906030055 54 51 0.0 0.0 0.00 0.00 0.00 98 1020.5
20260906025550 54 51 0.0 0.0 0.00 0.00 0.00 98 1020.3
20260906025049 54 51 0.0 0.0 0.00 0.00 0.00 97 1020.5
20260906024543 55 51 0.0 0.0 0.00 0.00 0.00 97 1020.3
20260906024038 55 51 0.0 0.0 0.00 0.00 0.00 97 1020.3
20260906023534 55 51 0.0 0.0 0.00 0.00 0.00 97 1020.2
20260906023028 55 51 0.0 0.0 0.00 0.00 0.00 96 1020.2
20260906022523 56 51 0.0 0.0 0.00 0.00 0.00 96 1020.2
20260906022013 56 51 0.0 0.0 0.00 0.00 0.00 96 1020.2
20260906021508 56 51 0.0 0.0 0.00 0.00 0.00 96 1020.1
20260906021002 56 51 0.0 0.0 0.00 0.00 0.00 96 1020.0
20260906020456 57 51 0.0 0.0 0.00 0.00 0.00 95 1020.0
20260906015956 57 51 0.0 0.0 0.00 0.00 0.00 95 1020.2
20260906015455 57 51 0.0 0.0 0.00 0.00 0.00 95 1020.0
20260906014955 57 51 0.0 0.0 0.00 0.00 0.00 94 1019.8
20260906014455 58 51 0.0 0.0 0.00 0.00 0.00 94 1019.9
20260906013945 58 51 0.0 0.0 0.00 0.00 0.00 94 1019.7
20260906013440 58 51 0.0 0.0 0.00 0.00 0.00 94 1020.0
20260906012936 58 51 0.0 0.0 0.00 0.00 0.00 94 1019.8
20260906012431 59 51 0.0 0.0 0.00 0.00 0.00 93 1019.9
20260906011930 59 51 0.0 0.0 0.00 0.00 0.00 92 1019.9
20260906011426 60 51 0.0 0.0 0.00 0.00 0.00 91 1019.7
20260906010921 60 51 0.0 0.0 0.00 0.00 0.00 90 1019.8
20260906010416 60 51 0.0 0.0 0.00 0.00 0.00 89 1019.7
20260906005912 61 51 0.0 0.0 0.00 0.00 0.00 88 1019.7
20260906005412 61 51 0.0 0.0 0.00 0.00 0.00 88 1019.8
20260906004904 61 51 0.0 0.0 0.00 0.00 0.00 87 1019.7
20260906004359 62 51 0.0 0.0 0.00 0.00 0.00 86 1019.8
20260906003854 62 51 0.0 0.0 0.00 0.00 0.00 85 1019.8
20260906003349 63 51 0.0 0.0 0.00 0.00 0.00 84 1019.7
20260906002846 64 51 0.0 0.0 0.00 0.00 0.00 82 1019.5
20260906002344 64 51 0.0 0.0 0.00 0.00 0.00 81 1019.6
20260906001840 65 51 0.0 0.0 0.00 0.00 0.00 79 1019.5
20260906001335 65 51 0.0 0.0 0.00 0.00 0.00 77 1019.3
20260906000830 66 51 0.0 0.0 0.00 0.00 0.00 77 1019.6
20260906000326 67 51 0.0 0.0 0.00 0.00 0.00 74 1019.3
20260905235825 67 51 0.0 0.0 0.00 0.00 0.00 76 1019.6
20260905235320 68 51 0.0 0.0 0.00 0.00 0.00 75 1019.3
20260905234816 69 51 0.0 0.0 0.00 0.00 0.00 69 1019.1
20260905234310 69 50 0.0 0.0 0.00 0.00 0.00 69 1019.5
20260905233800 70 50 0.0 0.0 0.00 0.00 0.00 68 1019.3
20260905233259 70 148 0.0 0.0 0.00 0.00 0.00 68 1019.3
20260905232759 70 148 0.0 0.0 0.00 0.00 0.00 67 1019.3
20260905232255 71 148 0.0 0.0 0.00 0.00 0.00 65 1019.2
20260905231750 71 148 0.0 0.0 0.00 0.00 0.00 65 1019.6
20260905231246 71 148 0.0 0.9 0.00 0.00 0.00 65 1019.2
20260905230742 72 126 0.0 0.0 0.00 0.00 0.00 64 1019.1
20260905230239 72 79 0.9 1.7 0.00 0.00 0.00 63 1019.0
20260905225733 72 127 0.0 0.9 0.00 0.00 0.00 63 1019.1
20260905225229 73 165 0.9 0.9 0.00 0.00 0.00 62 1019.1
20260905224727 73 99 0.0 0.0 0.00 0.00 0.00 62 1019.1
20260905224223 73 100 0.9 0.9 0.00 0.00 0.00 61 1019.0
20260905223719 74 161 0.0 0.0 0.00 0.00 0.00 62 1019.1
20260905223216 74 139 0.9 0.9 0.00 0.00 0.00 60 1018.9
20260905222712 74 173 0.0 0.9 0.00 0.00 0.00 60 1018.9
20260905222210 75 105 0.9 0.9 0.00 0.00 0.00 61 1019.0
20260905221706 75 43 0.0 0.0 0.00 0.00 0.00 60 1018.9
20260905221203 75 166 0.0 0.0 0.00 0.00 0.00 60 1019.1
20260905220659 75 115 0.9 0.9 0.00 0.00 0.00 60 1019.0
20260905220155 75 106 0.0 0.9 0.00 0.00 0.00 60 1019.0
20260905215649 76 112 1.7 1.7 0.00 0.00 0.00 60 1019.0
20260905215144 76 38 0.0 0.0 0.00 0.00 0.00 60 1019.0
20260905214640 76 17 0.0 0.0 0.00 0.00 0.00 60 1019.0
20260905214135 75 47 0.0 0.0 0.00 0.00 0.00 58 1019.0
20260905213631 75 46 0.0 0.0 0.00 0.00 0.00 58 1019.0
20260905213126 76 45 0.0 0.0 0.00 0.00 0.00 59 1019.0
20260905212621 76 120 0.0 0.0 0.00 0.00 0.00 58 1019.0
20260905212121 76 121 0.0 0.0 0.00 0.00 0.00 56 1018.8
20260905211616 76 120 0.0 0.9 0.00 0.00 0.00 56 1018.9
20260905211111 76 170 0.0 0.9 0.00 0.00 0.00 56 1018.8
20260905210607 76 171 0.9 0.9 0.00 0.00 0.00 58 1019.0
20260905205601 76 15 0.9 0.9 0.00 0.00 0.00 58 1019.0
20260905205100 77 8 0.0 0.9 0.00 0.00 0.00 57 1018.7
20260905204555 77 277 0.0 0.0 0.00 0.00 0.00 58 1018.7
20260905204050 76 288 0.0 0.0 0.00 0.00 0.00 59 1018.8
20260905203549 76 331 1.7 1.7 0.00 0.00 0.00 57 1018.8
20260905203045 76 353 2.6 3.5 0.00 0.00 0.00 57 1018.6
20260905202540 76 341 0.9 0.9 0.00 0.00 0.00 56 1018.7
20260905202036 76 239 0.0 0.0 0.00 0.00 0.00 58 1018.6
20260905201532 76 332 0.9 1.7 0.00 0.00 0.00 57 1018.8
20260905201031 76 117 0.9 0.9 0.00 0.00 0.00 56 1018.8
20260905200527 76 3 0.0 0.0 0.00 0.00 0.00 59 1018.9
20260905200026 76 321 0.0 0.9 0.00 0.00 0.00 56 1019.0
20260905195521 76 332 1.7 1.7 0.00 0.00 0.00 60 1019.0
20260905195016 75 280 0.0 0.0 0.00 0.00 0.00 60 1019.0
20260905194515 74 336 0.0 0.9 0.00 0.00 0.00 62 1019.1
20260905194009 73 352 0.0 0.9 0.00 0.00 0.00 65 1019.1
20260905193504 74 355 2.6 5.2 0.00 0.00 0.00 64 1019.1
20260905193000 75 24 0.9 1.7 0.00 0.00 0.00 63 1019.1
20260905192455 75 4 1.7 1.7 0.00 0.00 0.00 61 1019.2
20260905191951 75 128 0.0 0.0 0.00 0.00 0.00 60 1019.6